Hub


Voltar

 INFORMAÇÕES METEOROLÓGICAS

METAR FOR KALM


ADDS - METARS form results

(2006 UTC 18 August 2019)
Data provider http://aviationweather.gov/metar/data/
 
METAR text: KALM 181955Z AUTO 24004KT 10SM CLR 36/00 A3001 RMK AO2
Conditions at: KALM (ALAMOGORDO WHITE, NM, US) observed 1955 UTC 18 August 2019
Temperature: 36.0°C (97°F)
Dewpoint: 0.0°C (32°F) [RH = 10%]
Pressure (altimeter): 30.01 inches Hg (1016.3 mb)
Winds: from the WSW (240 degrees) at 5 MPH (4 knots; 2.1 m/s)
Visibility: 10 or more miles (16+ km)
Ceiling: at least 12,000 feet AGL
Clouds: sky clear below 12,000 feet AGL
Weather: automated observation with no human augmentation;
there may or may not be significant weather present at this time

METAR text: KALM 181935Z AUTO 34007KT 10SM CLR 35/01 A3002 RMK AO2
Conditions at: KALM (ALAMOGORDO WHITE, NM, US) observed 1935 UTC 18 August 2019
Temperature: 35.0°C (95°F)
Dewpoint: 1.0°C (34°F) [RH = 12%]
Pressure (altimeter): 30.02 inches Hg (1016.7 mb)
Winds: from the NNW (340 degrees) at 8 MPH (7 knots; 3.6 m/s)
Visibility: 10 or more miles (16+ km)
Ceiling: at least 12,000 feet AGL
Clouds: sky clear below 12,000 feet AGL
Weather: automated observation with no human augmentation;
there may or may not be significant weather present at this time

METAR text: KALM 181915Z AUTO 36005KT 10SM CLR 35/01 A3003 RMK AO2
Conditions at: KALM (ALAMOGORDO WHITE, NM, US) observed 1915 UTC 18 August 2019
Temperature: 35.0°C (95°F)
Dewpoint: 1.0°C (34°F) [RH = 12%]
Pressure (altimeter): 30.03 inches Hg (1017.0 mb)
Winds: from the N (360 degrees) at 6 MPH (5 knots; 2.6 m/s)
Visibility: 10 or more miles (16+ km)
Ceiling: at least 12,000 feet AGL
Clouds: sky clear below 12,000 feet AGL
Weather: automated observation with no human augmentation;
there may or may not be significant weather present at this time


 MAPA DO AEROPORTO


 INFORMAÇÕES DA PISTA

Pista 03 Tamanho da pista 7006 ft Largura da pista 150 ft
Elevação da pista 4144 ft Ranhura da pista 0 ft Proa da pista 46
Pista 21 Tamanho da pista 7006 ft Largura da pista 150 ft
Elevação da pista 4200 ft Ranhura da pista 0 ft Proa da pista 226
Pista 16 Tamanho da pista 3512 ft Largura da pista 200 ft
Elevação da pista 4200 ft Ranhura da pista 0 ft Proa da pista 173
Pista 34 Tamanho da pista 3512 ft Largura da pista 200 ft
Elevação da pista 4200 ft Ranhura da pista 0 ft Proa da pista 353

 FREQUÊNCIAS DO AEROPORTO

Tipo APP Nome HOLLOMAN A Frequência 120.6 MHZ
Tipo AWOS Nome AWOS 3 Frequência 127.825 MHZ
Tipo DEP Nome HOLLOMAN D Frequência 128.1 MHZ
Tipo RDO Nome ALBUQUERQU Frequência 122.15 MHZ
Tipo UNIC Nome CTAF/UNICO Frequência 122.8 MHZ

 AUXÍLIOS DE NAVEGAÇÃO PRÓXIMOS AO AEROPORTO

Tipo VOR-DME Nome Boles Frequência 109600 KHZ